sensor_id;sensor_type;location;lat;lon;timestamp;pressure;altitude;pressure_sealevel;temperature;humidity
64080;BME280;51042;49.696;10.808;2022-12-29T00:02:18;97993.72;;;5.77;87.40
64080;BME280;51042;49.696;10.808;2022-12-29T00:04:43;97991.34;;;5.79;87.53
64080;BME280;51042;49.696;10.808;2022-12-29T00:07:09;97984.31;;;5.82;87.16
64080;BME280;51042;49.696;10.808;2022-12-29T00:09:34;97983.16;;;5.79;87.68
64080;BME280;51042;49.696;10.808;2022-12-29T00:11:59;97991.00;;;5.77;87.68
64080;BME280;51042;49.696;10.808;2022-12-29T00:14:25;97979.63;;;5.82;87.01
64080;BME280;51042;49.696;10.808;2022-12-29T00:17:09;97984.31;;;5.82;86.99
64080;BME280;51042;49.696;10.808;2022-12-29T00:19:34;97974.19;;;5.82;87.76
64080;BME280;51042;49.696;10.808;2022-12-29T00:22:18;97974.53;;;5.84;87.44
64080;BME280;51042;49.696;10.808;2022-12-29T00:25:02;97969.44;;;5.86;87.83
64080;BME280;51042;49.696;10.808;2022-12-29T00:27:46;97975.28;;;5.88;87.49
64080;BME280;51042;49.696;10.808;2022-12-29T00:30:30;97977.53;;;5.93;87.09
64080;BME280;51042;49.696;10.808;2022-12-29T00:33:18;97963.38;;;6.02;86.06
64080;BME280;51042;49.696;10.808;2022-12-29T00:38:40;97968.38;;;6.07;86.21
64080;BME280;51042;49.696;10.808;2022-12-29T00:41:26;97972.59;;;6.08;86.81
64080;BME280;51042;49.696;10.808;2022-12-29T00:44:11;97972.59;;;6.08;87.08
64080;BME280;51042;49.696;10.808;2022-12-29T00:46:37;97958.28;;;6.04;87.93
64080;BME280;51042;49.696;10.808;2022-12-29T00:49:03;97960.66;;;6.02;88.12
64080;BME280;51042;49.696;10.808;2022-12-29T00:51:52;97955.69;;;5.97;88.74
64080;BME280;51042;49.696;10.808;2022-12-29T00:54:18;97960.66;;;6.02;88.50
64080;BME280;51042;49.696;10.808;2022-12-29T00:56:43;97961.78;;;6.04;88.71
64080;BME280;51042;49.696;10.808;2022-12-29T00:59:10;97958.25;;;6.07;88.05
64080;BME280;51042;49.696;10.808;2022-12-29T01:01:36;97955.84;;;6.09;87.87
64080;BME280;51042;49.696;10.808;2022-12-29T01:04:02;97954.66;;;6.10;87.89
64080;BME280;51042;49.696;10.808;2022-12-29T01:06:27;97961.25;;;6.13;87.71
64080;BME280;51042;49.696;10.808;2022-12-29T01:08:52;97960.41;;;6.16;87.93
64080;BME280;51042;49.696;10.808;2022-12-29T01:11:36;97956.78;;;6.23;87.01
64080;BME280;51042;49.696;10.808;2022-12-29T01:14:02;97947.44;;;6.24;87.34
64080;BME280;51042;49.696;10.808;2022-12-29T01:16:27;97951.75;;;6.21;87.90
64080;BME280;51042;49.696;10.808;2022-12-29T01:18:52;97943.25;;;6.19;87.55
64080;BME280;51042;49.696;10.808;2022-12-29T01:21:17;97949.81;;;6.22;87.13
64080;BME280;51042;49.696;10.808;2022-12-29T01:23:43;97934.91;;;6.26;86.43
64080;BME280;51042;49.696;10.808;2022-12-29T01:26:09;97944.50;;;6.34;86.77
64080;BME280;51042;49.696;10.808;2022-12-29T01:28:34;97935.56;;;6.34;86.42
64080;BME280;51042;49.696;10.808;2022-12-29T01:31:00;97932.44;;;6.35;86.64
64080;BME280;51042;49.696;10.808;2022-12-29T01:33:25;97925.44;;;6.34;86.80
64080;BME280;51042;49.696;10.808;2022-12-29T01:35:51;97928.56;;;6.33;86.76
64080;BME280;51042;49.696;10.808;2022-12-29T01:38:16;97931.25;;;6.36;86.75
64080;BME280;51042;49.696;10.808;2022-12-29T01:40:45;97923.00;;;6.40;86.25
64080;BME280;51042;49.696;10.808;2022-12-29T01:43:11;97924.53;;;6.41;86.40
64080;BME280;51042;49.696;10.808;2022-12-29T01:45:38;97920.56;;;6.45;86.04
64080;BME280;51042;49.696;10.808;2022-12-29T01:48:04;97914.97;;;6.52;85.48
64080;BME280;51042;49.696;10.808;2022-12-29T01:50:36;97921.53;;;6.55;86.03
64080;BME280;51042;49.696;10.808;2022-12-29T01:53:08;97919.56;;;6.55;85.40
64080;BME280;51042;49.696;10.808;2022-12-29T01:55:46;97920.34;;;6.56;85.58
64080;BME280;51042;49.696;10.808;2022-12-29T01:58:13;97917.28;;;6.54;86.25
64080;BME280;51042;49.696;10.808;2022-12-29T02:00:40;97922.72;;;6.54;86.11
64080;BME280;51042;49.696;10.808;2022-12-29T02:03:06;97934.69;;;6.60;85.56
64080;BME280;51042;49.696;10.808;2022-12-29T02:05:45;97929.16;;;6.64;85.69
64080;BME280;51042;49.696;10.808;2022-12-29T02:08:12;97931.09;;;6.63;86.37
64080;BME280;51042;49.696;10.808;2022-12-29T02:10:38;97930.59;;;6.68;85.89
64080;BME280;51042;49.696;10.808;2022-12-29T02:13:04;97920.69;;;6.78;85.20
64080;BME280;51042;49.696;10.808;2022-12-29T02:15:41;97919.34;;;6.86;84.53
64080;BME280;51042;49.696;10.808;2022-12-29T02:21:03;97912.00;;;7.03;83.44
64080;BME280;51042;49.696;10.808;2022-12-29T02:34:12;97898.44;;;7.15;82.98
64080;BME280;51042;49.696;10.808;2022-12-29T02:36:46;97909.13;;;7.26;82.60
64080;BME280;51042;49.696;10.808;2022-12-29T02:39:34;97905.13;;;7.30;82.68
64080;BME280;51042;49.696;10.808;2022-12-29T02:49:38;97899.31;;;7.28;82.41
64080;BME280;51042;49.696;10.808;2022-12-29T02:52:25;97886.00;;;7.30;81.72
64080;BME280;51042;49.696;10.808;2022-12-29T02:54:55;97885.84;;;7.37;81.61
64080;BME280;51042;49.696;10.808;2022-12-29T02:59:46;97885.84;;;7.37;82.43
64080;BME280;51042;49.696;10.808;2022-12-29T03:07:28;97886.88;;;7.44;82.03
64080;BME280;51042;49.696;10.808;2022-12-29T03:10:14;97888.84;;;7.43;82.24
64080;BME280;51042;49.696;10.808;2022-12-29T03:12:44;97878.09;;;7.36;82.99
64080;BME280;51042;49.696;10.808;2022-12-29T03:15:33;97876.91;;;7.37;83.22
64080;BME280;51042;49.696;10.808;2022-12-29T03:18:22;97878.19;;;7.32;82.93
64080;BME280;51042;49.696;10.808;2022-12-29T03:23:13;97876.38;;;7.26;83.97
64080;BME280;51042;49.696;10.808;2022-12-29T03:25:40;97878.50;;;7.18;84.97
64080;BME280;51042;49.696;10.808;2022-12-29T03:28:07;97870.47;;;7.11;85.79
64080;BME280;51042;49.696;10.808;2022-12-29T03:30:34;97867.84;;;7.08;87.14
64080;BME280;51042;49.696;10.808;2022-12-29T03:33:04;97866.81;;;7.02;86.93
64080;BME280;51042;49.696;10.808;2022-12-29T03:35:32;97864.59;;;6.96;88.05
64080;BME280;51042;49.696;10.808;2022-12-29T03:38:00;97870.19;;;6.89;88.49
64080;BME280;51042;49.696;10.808;2022-12-29T03:40:29;97865.16;;;6.88;88.30
64080;BME280;51042;49.696;10.808;2022-12-29T03:42:56;97876.47;;;6.86;88.62
64080;BME280;51042;49.696;10.808;2022-12-29T03:45:22;97867.97;;;6.84;88.77
64080;BME280;51042;49.696;10.808;2022-12-29T03:47:47;97878.09;;;6.84;88.76
64080;BME280;51042;49.696;10.808;2022-12-29T03:50:12;97877.75;;;6.82;88.58
64080;BME280;51042;49.696;10.808;2022-12-29T03:52:37;97880.81;;;6.84;88.23
64080;BME280;51042;49.696;10.808;2022-12-29T03:55:03;97872.19;;;6.85;88.57
64080;BME280;51042;49.696;10.808;2022-12-29T03:57:28;97867.19;;;6.84;88.32
64080;BME280;51042;49.696;10.808;2022-12-29T03:59:53;97877.75;;;6.82;88.40
64080;BME280;51042;49.696;10.808;2022-12-29T04:02:18;97866.47;;;6.80;88.42
64080;BME280;51042;49.696;10.808;2022-12-29T04:04:44;97875.59;;;6.73;89.40
64080;BME280;51042;49.696;10.808;2022-12-29T04:07:09;97880.84;;;6.64;90.31
64080;BME280;51042;49.696;10.808;2022-12-29T04:09:34;97882.19;;;6.56;90.91
64080;BME280;51042;49.696;10.808;2022-12-29T04:11:59;97879.19;;;6.50;91.15
64080;BME280;51042;49.696;10.808;2022-12-29T04:14:24;97892.75;;;6.54;90.85
64080;BME280;51042;49.696;10.808;2022-12-29T04:16:50;97882.19;;;6.56;90.31
64080;BME280;51042;49.696;10.808;2022-12-29T04:19:15;97889.94;;;6.57;90.08
64080;BME280;51042;49.696;10.808;2022-12-29T04:21:40;97884.44;;;6.61;89.56
64080;BME280;51042;49.696;10.808;2022-12-29T04:24:05;97889.13;;;6.61;88.94
64080;BME280;51042;49.696;10.808;2022-12-29T04:26:33;97890.78;;;6.54;90.02
64080;BME280;51042;49.696;10.808;2022-12-29T04:28:59;97883.84;;;6.50;90.07
64080;BME280;51042;49.696;10.808;2022-12-29T04:31:24;97881.56;;;6.48;90.90
64080;BME280;51042;49.696;10.808;2022-12-29T04:33:49;97885.13;;;6.45;90.29
64080;BME280;51042;49.696;10.808;2022-12-29T04:36:14;97886.75;;;6.43;90.38
64080;BME280;51042;49.696;10.808;2022-12-29T04:38:39;97890.38;;;6.36;90.53
64080;BME280;51042;49.696;10.808;2022-12-29T04:41:05;97881.91;;;6.31;89.85
64080;BME280;51042;49.696;10.808;2022-12-29T04:43:30;97878.16;;;6.25;91.36
64080;BME280;51042;49.696;10.808;2022-12-29T04:45:55;97881.56;;;6.29;90.73
64080;BME280;51042;49.696;10.808;2022-12-29T04:48:20;97877.16;;;6.35;90.70
64080;BME280;51042;49.696;10.808;2022-12-29T04:50:47;97877.34;;;6.44;89.31
64080;BME280;51042;49.696;10.808;2022-12-29T04:53:13;97881.13;;;6.50;89.63
64080;BME280;51042;49.696;10.808;2022-12-29T04:55:39;97886.03;;;6.59;88.30
64080;BME280;51042;49.696;10.808;2022-12-29T04:58:04;97879.31;;;6.63;88.39
64080;BME280;51042;49.696;10.808;2022-12-29T05:00:29;97878.13;;;6.64;88.08
64080;BME280;51042;49.696;10.808;2022-12-29T05:02:54;97890.94;;;6.67;88.24
64080;BME280;51042;49.696;10.808;2022-12-29T05:05:19;97886.66;;;6.66;87.88
64080;BME280;51042;49.696;10.808;2022-12-29T05:07:45;97887.44;;;6.67;87.66
64080;BME280;51042;49.696;10.808;2022-12-29T05:10:10;97884.25;;;6.68;87.21
64080;BME280;51042;49.696;10.808;2022-12-29T05:12:36;97885.03;;;6.69;87.66
64080;BME280;51042;49.696;10.808;2022-12-29T05:15:02;97890.84;;;6.71;87.50
64080;BME280;51042;49.696;10.808;2022-12-29T05:17:30;97875.59;;;6.73;87.40
64080;BME280;51042;49.696;10.808;2022-12-29T05:19:55;97874.47;;;6.71;87.11
64080;BME280;51042;49.696;10.808;2022-12-29T05:22:21;97864.78;;;6.50;88.09
64080;BME280;51042;49.696;10.808;2022-12-29T05:24:46;97865.28;;;6.25;89.33
64080;BME280;51042;49.696;10.808;2022-12-29T05:27:11;97851.25;;;6.07;90.26
64080;BME280;51042;49.696;10.808;2022-12-29T05:29:36;97842.03;;;6.01;90.55
64080;BME280;51042;49.696;10.808;2022-12-29T05:32:02;97848.00;;;5.92;91.00
64080;BME280;51042;49.696;10.808;2022-12-29T05:34:27;97847.69;;;5.87;91.27
64080;BME280;51042;49.696;10.808;2022-12-29T05:36:52;97855.47;;;5.88;91.08
64080;BME280;51042;49.696;10.808;2022-12-29T05:39:17;97847.41;;;5.81;91.59
64080;BME280;51042;49.696;10.808;2022-12-29T05:41:42;97852.59;;;5.72;91.96
64080;BME280;51042;49.696;10.808;2022-12-29T05:44:09;97852.94;;;5.78;91.60
64080;BME280;51042;49.696;10.808;2022-12-29T05:46:34;97852.97;;;5.74;91.79
64080;BME280;51042;49.696;10.808;2022-12-29T05:48:59;97852.16;;;5.77;91.43
64080;BME280;51042;49.696;10.808;2022-12-29T05:51:25;97852.16;;;5.77;91.02
64080;BME280;51042;49.696;10.808;2022-12-29T05:53:50;97847.88;;;5.76;91.52
64080;BME280;51042;49.696;10.808;2022-12-29T05:56:15;97844.03;;;5.73;91.35
64080;BME280;51042;49.696;10.808;2022-12-29T05:58:40;97842.09;;;5.74;91.72
64080;BME280;51042;49.696;10.808;2022-12-29T06:01:06;97843.63;;;5.75;91.77
64080;BME280;51042;49.696;10.808;2022-12-29T06:03:31;97858.00;;;5.75;91.79
64080;BME280;51042;49.696;10.808;2022-12-29T06:05:56;97850.81;;;5.85;91.35
64080;BME280;51042;49.696;10.808;2022-12-29T06:08:21;97845.38;;;5.89;90.69
64080;BME280;51042;49.696;10.808;2022-12-29T06:10:46;97844.88;;;5.94;90.28
64080;BME280;51042;49.696;10.808;2022-12-29T06:13:12;97857.72;;;5.93;90.42
64080;BME280;51042;49.696;10.808;2022-12-29T06:15:37;97863.16;;;5.93;90.36
64080;BME280;51042;49.696;10.808;2022-12-29T06:18:02;97852.28;;;5.93;90.27
64080;BME280;51042;49.696;10.808;2022-12-29T06:20:27;97854.09;;;6.00;90.08
64080;BME280;51042;49.696;10.808;2022-12-29T06:22:53;97853.69;;;6.01;90.06
64080;BME280;51042;49.696;10.808;2022-12-29T06:25:18;97862.41;;;6.12;89.80
64080;BME280;51042;49.696;10.808;2022-12-29T06:27:43;97849.50;;;6.17;88.65
64080;BME280;51042;49.696;10.808;2022-12-29T06:30:08;97862.63;;;6.22;88.36
64080;BME280;51042;49.696;10.808;2022-12-29T06:32:34;97864.09;;;6.26;88.75
64080;BME280;51042;49.696;10.808;2022-12-29T06:34:59;97866.88;;;6.23;88.93
64080;BME280;51042;49.696;10.808;2022-12-29T06:37:25;97862.41;;;6.12;89.23
64080;BME280;51042;49.696;10.808;2022-12-29T06:39:50;97874.22;;;6.06;89.96
64080;BME280;51042;49.696;10.808;2022-12-29T06:42:15;97864.50;;;6.05;90.45
64080;BME280;51042;49.696;10.808;2022-12-29T06:44:40;97865.69;;;6.04;90.24
64080;BME280;51042;49.696;10.808;2022-12-29T06:47:05;97872.66;;;6.05;90.04
64080;BME280;51042;49.696;10.808;2022-12-29T06:49:31;97865.63;;;6.07;89.43
64080;BME280;51042;49.696;10.808;2022-12-29T06:51:56;97863.66;;;6.08;89.74
64080;BME280;51042;49.696;10.808;2022-12-29T06:54:23;97857.47;;;6.07;89.10
64080;BME280;51042;49.696;10.808;2022-12-29T06:56:48;97867.50;;;6.10;88.88
64080;BME280;51042;49.696;10.808;2022-12-29T06:59:13;97868.63;;;6.13;88.83
64080;BME280;51042;49.696;10.808;2022-12-29T07:01:38;97874.41;;;6.15;89.20
64080;BME280;51042;49.696;10.808;2022-12-29T07:04:03;97878.63;;;6.20;87.84
64080;BME280;51042;49.696;10.808;2022-12-29T07:06:29;97876.53;;;6.27;87.98
64080;BME280;51042;49.696;10.808;2022-12-29T07:08:54;97883.44;;;6.32;87.42
64080;BME280;51042;49.696;10.808;2022-12-29T07:11:20;97879.13;;;6.34;86.91
64080;BME280;51042;49.696;10.808;2022-12-29T07:13:46;97881.06;;;6.34;87.19
64080;BME280;51042;49.696;10.808;2022-12-29T07:16:11;97876.75;;;6.36;86.82
64080;BME280;51042;49.696;10.808;2022-12-29T07:18:36;97880.16;;;6.40;86.86
64080;BME280;51042;49.696;10.808;2022-12-29T07:21:01;97879.34;;;6.43;85.79
64080;BME280;51042;49.696;10.808;2022-12-29T07:23:27;97877.63;;;6.49;85.44
64080;BME280;51042;49.696;10.808;2022-12-29T07:26:02;97878.75;;;6.52;85.04
64080;BME280;51042;49.696;10.808;2022-12-29T07:28:27;97866.66;;;6.53;85.60
64080;BME280;51042;49.696;10.808;2022-12-29T07:30:53;97870.16;;;6.53;85.63
64080;BME280;51042;49.696;10.808;2022-12-29T07:33:18;97872.81;;;6.57;86.17
64080;BME280;51042;49.696;10.808;2022-12-29T07:35:43;97876.25;;;6.61;85.53
64080;BME280;51042;49.696;10.808;2022-12-29T07:38:08;97878.53;;;6.63;85.48
64080;BME280;51042;49.696;10.808;2022-12-29T07:40:33;97879.31;;;6.63;85.19
64080;BME280;51042;49.696;10.808;2022-12-29T07:42:58;97872.41;;;6.59;85.37
64080;BME280;51042;49.696;10.808;2022-12-29T07:45:23;97866.94;;;6.59;85.35
64080;BME280;51042;49.696;10.808;2022-12-29T07:47:49;97874.56;;;6.67;84.82
64080;BME280;51042;49.696;10.808;2022-12-29T07:50:14;97870.91;;;6.74;84.89
64080;BME280;51042;49.696;10.808;2022-12-29T07:52:39;97870.44;;;6.79;85.18
64080;BME280;51042;49.696;10.808;2022-12-29T07:55:04;97857.88;;;6.81;85.18
64080;BME280;51042;49.696;10.808;2022-12-29T07:57:30;97873.69;;;6.90;84.90
64080;BME280;51042;49.696;10.808;2022-12-29T07:59:55;97879.19;;;6.86;84.78
64080;BME280;51042;49.696;10.808;2022-12-29T08:02:20;97881.25;;;6.82;84.74
64080;BME280;51042;49.696;10.808;2022-12-29T08:04:45;97873.47;;;6.81;85.06
64080;BME280;51042;49.696;10.808;2022-12-29T08:07:10;97881.66;;;6.81;84.97
64080;BME280;51042;49.696;10.808;2022-12-29T08:09:35;97891.38;;;6.82;84.88
64080;BME280;51042;49.696;10.808;2022-12-29T08:12:01;97889.34;;;6.86;84.96
64080;BME280;51042;49.696;10.808;2022-12-29T08:14:26;97893.59;;;6.87;84.63
64080;BME280;51042;49.696;10.808;2022-12-29T08:16:51;97893.97;;;6.89;84.76
64080;BME280;51042;49.696;10.808;2022-12-29T08:19:16;97896.59;;;6.92;83.64
64080;BME280;51042;49.696;10.808;2022-12-29T08:21:41;97902.78;;;6.96;83.54
64080;BME280;51042;49.696;10.808;2022-12-29T08:24:07;97887.84;;;7.01;83.47
64080;BME280;51042;49.696;10.808;2022-12-29T08:26:32;97883.84;;;7.06;82.37
64080;BME280;51042;49.696;10.808;2022-12-29T08:28:58;97877.06;;;7.14;81.89
64080;BME280;51042;49.696;10.808;2022-12-29T08:31:23;97878.50;;;7.18;81.82
64080;BME280;51042;49.696;10.808;2022-12-29T08:33:48;97862.91;;;7.19;80.90
64080;BME280;51042;49.696;10.808;2022-12-29T08:36:14;97868.72;;;7.21;81.76
64080;BME280;51042;49.696;10.808;2022-12-29T08:38:39;97876.38;;;7.26;79.86
64080;BME280;51042;49.696;10.808;2022-12-29T08:41:04;97887.63;;;7.28;79.60
64080;BME280;51042;49.696;10.808;2022-12-29T08:43:29;97879.38;;;7.31;79.28
64080;BME280;51042;49.696;10.808;2022-12-29T08:45:54;97875.25;;;7.39;78.37
64080;BME280;51042;49.696;10.808;2022-12-29T08:48:20;97882.88;;;7.48;78.40
64080;BME280;51042;49.696;10.808;2022-12-29T08:50:47;97890.72;;;7.62;77.66
64080;BME280;51042;49.696;10.808;2022-12-29T08:53:12;97892.22;;;7.63;77.16
64080;BME280;51042;49.696;10.808;2022-12-29T08:55:38;97892.44;;;7.56;76.69
64080;BME280;51042;49.696;10.808;2022-12-29T08:58:03;97883.47;;;7.56;76.42
64080;BME280;51042;49.696;10.808;2022-12-29T09:00:28;97892.06;;;7.54;76.56
64080;BME280;51042;49.696;10.808;2022-12-29T09:02:53;97894.81;;;7.54;76.56
64080;BME280;51042;49.696;10.808;2022-12-29T09:05:19;97886.88;;;7.60;76.17
64080;BME280;51042;49.696;10.808;2022-12-29T09:07:44;97894.91;;;7.67;76.36
64080;BME280;51042;49.696;10.808;2022-12-29T09:10:09;97898.72;;;7.69;77.39
64080;BME280;51042;49.696;10.808;2022-12-29T09:12:34;97883.88;;;7.70;75.83
64080;BME280;51042;49.696;10.808;2022-12-29T09:14:59;97880.47;;;7.66;76.05
64080;BME280;51042;49.696;10.808;2022-12-29T09:17:25;97883.97;;;7.67;75.97
64080;BME280;51042;49.696;10.808;2022-12-29T09:20:09;97892.47;;;7.69;75.98
64080;BME280;51042;49.696;10.808;2022-12-29T09:22:34;97882.50;;;7.78;76.00
64080;BME280;51042;49.696;10.808;2022-12-29T09:24:59;97895.75;;;7.80;76.14
64080;BME280;51042;49.696;10.808;2022-12-29T09:27:24;97885.84;;;7.86;75.37
64080;BME280;51042;49.696;10.808;2022-12-29T09:29:50;97893.75;;;7.97;76.42
64080;BME280;51042;49.696;10.808;2022-12-29T09:32:15;97895.59;;;8.00;75.66
64080;BME280;51042;49.696;10.808;2022-12-29T09:34:40;97887.00;;;8.01;75.67
64080;BME280;51042;49.696;10.808;2022-12-29T09:37:05;97898.16;;;8.07;76.22
64080;BME280;51042;49.696;10.808;2022-12-29T09:39:30;97904.06;;;8.05;76.60
64080;BME280;51042;49.696;10.808;2022-12-29T09:44:54;97893.28;;;8.14;75.92
64080;BME280;51042;49.696;10.808;2022-12-29T09:47:13;97894.28;;;8.20;76.41
64080;BME280;51042;49.696;10.808;2022-12-29T09:52:06;97900.94;;;8.19;76.75
64080;BME280;51042;49.696;10.808;2022-12-29T09:54:45;97886.28;;;8.13;77.05
64080;BME280;51042;49.696;10.808;2022-12-29T09:57:15;97894.81;;;8.15;76.24
64080;BME280;51042;49.696;10.808;2022-12-29T09:59:41;97890.13;;;8.16;77.52
64080;BME280;51042;49.696;10.808;2022-12-29T10:02:20;97901.38;;;8.18;76.72
64080;BME280;51042;49.696;10.808;2022-12-29T10:04:48;97896.69;;;8.18;77.92
64080;BME280;51042;49.696;10.808;2022-12-29T10:12:52;97891.13;;;8.22;77.27
64080;BME280;51042;49.696;10.808;2022-12-29T10:15:39;97883.94;;;8.28;77.48
64080;BME280;51042;49.696;10.808;2022-12-29T10:18:12;97881.78;;;8.36;77.40
64080;BME280;51042;49.696;10.808;2022-12-29T10:20:48;97883.50;;;8.46;77.70
64080;BME280;51042;49.696;10.808;2022-12-29T10:25:43;97882.31;;;8.59;77.24
64080;BME280;51042;49.696;10.808;2022-12-29T10:28:33;97882.97;;;8.64;77.49
64080;BME280;51042;49.696;10.808;2022-12-29T10:30:55;97877.16;;;8.62;78.27
64080;BME280;51042;49.696;10.808;2022-12-29T10:33:25;97880.13;;;8.67;77.87
64080;BME280;51042;49.696;10.808;2022-12-29T10:35:55;97874.47;;;8.74;78.47
64080;BME280;51042;49.696;10.808;2022-12-29T10:38:28;97881.25;;;8.82;78.54
64080;BME280;51042;49.696;10.808;2022-12-29T10:43:38;97875.59;;;9.02;79.29
64080;BME280;51042;49.696;10.808;2022-12-29T10:46:21;97864.00;;;9.11;80.37
64080;BME280;51042;49.696;10.808;2022-12-29T10:48:47;97869.91;;;9.09;79.15
64080;BME280;51042;49.696;10.808;2022-12-29T10:51:18;97867.59;;;9.08;78.67
64080;BME280;51042;49.696;10.808;2022-12-29T10:53:46;97869.13;;;9.09;80.05
64080;BME280;51042;49.696;10.808;2022-12-29T10:56:21;97860.16;;;9.08;80.84
64080;BME280;51042;49.696;10.808;2022-12-29T10:58:46;97866.81;;;9.07;80.75
64080;BME280;51042;49.696;10.808;2022-12-29T11:01:15;97854.69;;;9.08;81.31
64080;BME280;51042;49.696;10.808;2022-12-29T11:06:15;97856.56;;;9.11;81.27
64080;BME280;51042;49.696;10.808;2022-12-29T11:08:53;97845.47;;;9.15;80.66
64080;BME280;51042;49.696;10.808;2022-12-29T11:11:27;97848.00;;;9.22;81.23
64080;BME280;51042;49.696;10.808;2022-12-29T11:13:59;97856.53;;;9.24;81.09
64080;BME280;51042;49.696;10.808;2022-12-29T11:16:30;97855.78;;;9.23;80.66
64080;BME280;51042;49.696;10.808;2022-12-29T11:18:56;97861.56;;;9.25;81.44
64080;BME280;51042;49.696;10.808;2022-12-29T11:21:26;97862.34;;;9.26;81.53
64080;BME280;51042;49.696;10.808;2022-12-29T11:23:56;97867.59;;;9.33;80.54
64080;BME280;51042;49.696;10.808;2022-12-29T11:26:23;97866.59;;;9.39;81.47
64080;BME280;51042;49.696;10.808;2022-12-29T11:31:43;97875.91;;;9.42;83.15
64080;BME280;51042;49.696;10.808;2022-12-29T11:34:15;97877.34;;;9.34;82.02
64080;BME280;51042;49.696;10.808;2022-12-29T11:36:41;97864.22;;;9.29;83.48
64080;BME280;51042;49.696;10.808;2022-12-29T11:39:06;97870.22;;;9.24;83.52
64080;BME280;51042;49.696;10.808;2022-12-29T11:41:51;97864.31;;;9.25;81.95
64080;BME280;51042;49.696;10.808;2022-12-29T11:44:17;97869.34;;;9.27;81.84
64080;BME280;51042;49.696;10.808;2022-12-29T11:46:45;97864.28;;;9.38;82.06
64080;BME280;51042;49.696;10.808;2022-12-29T11:49:12;97863.19;;;9.48;82.46
64080;BME280;51042;49.696;10.808;2022-12-29T11:51:44;97861.53;;;9.51;82.28
64080;BME280;51042;49.696;10.808;2022-12-29T11:54:13;97856.06;;;9.51;82.09
64080;BME280;51042;49.696;10.808;2022-12-29T11:56:42;97860.13;;;9.59;81.61
64080;BME280;51042;49.696;10.808;2022-12-29T12:01:51;97862.97;;;9.90;80.36
64080;BME280;51042;49.696;10.808;2022-12-29T12:04:17;97861.94;;;10.09;80.02
64080;BME280;51042;49.696;10.808;2022-12-29T12:09:29;97854.25;;;10.38;79.49
64080;BME280;51042;49.696;10.808;2022-12-29T12:11:56;97861.47;;;10.23;79.38
64080;BME280;51042;49.696;10.808;2022-12-29T12:14:34;97865.78;;;10.11;80.74
64080;BME280;51042;49.696;10.808;2022-12-29T12:17:05;97854.59;;;10.06;80.85
64080;BME280;51042;49.696;10.808;2022-12-29T12:19:42;97845.91;;;10.07;81.08
64080;BME280;51042;49.696;10.808;2022-12-29T12:25:18;97853.91;;;10.14;80.91
64080;BME280;51042;49.696;10.808;2022-12-29T12:27:53;97859.53;;;10.11;80.70
64080;BME280;51042;49.696;10.808;2022-12-29T12:30:23;97854.34;;;10.13;79.88
64080;BME280;51042;49.696;10.808;2022-12-29T12:32:56;97857.41;;;10.15;80.14
64080;BME280;51042;49.696;10.808;2022-12-29T12:38:11;97852.31;;;10.04;80.98
64080;BME280;51042;49.696;10.808;2022-12-29T12:40:42;97860.53;;;10.04;80.88
64080;BME280;51042;49.696;10.808;2022-12-29T12:45:45;97860.09;;;10.06;81.32
64080;BME280;51042;49.696;10.808;2022-12-29T12:48:36;97859.00;;;10.03;80.97
64080;BME280;51042;49.696;10.808;2022-12-29T12:59:55;97854.88;;;9.86;83.13
64080;BME280;51042;49.696;10.808;2022-12-29T13:02:15;97851.03;;;9.83;83.33
64080;BME280;51042;49.696;10.808;2022-12-29T13:04:49;97856.84;;;9.86;84.11
64080;BME280;51042;49.696;10.808;2022-12-29T13:07:21;97852.34;;;9.92;83.85
64080;BME280;51042;49.696;10.808;2022-12-29T13:09:54;97846.50;;;10.02;83.44
64080;BME280;51042;49.696;10.808;2022-12-29T13:12:40;97847.44;;;10.08;83.66
64080;BME280;51042;49.696;10.808;2022-12-29T13:15:10;97844.13;;;10.13;83.05
64080;BME280;51042;49.696;10.808;2022-12-29T13:23:09;97846.22;;;10.22;83.50
64080;BME280;51042;49.696;10.808;2022-12-29T13:26:24;97847.94;;;10.29;82.37
64080;BME280;51042;49.696;10.808;2022-12-29T13:38:39;97857.56;;;10.33;82.81
64080;BME280;51042;49.696;10.808;2022-12-29T13:41:08;97854.06;;;10.33;83.22
64080;BME280;51042;49.696;10.808;2022-12-29T13:43:37;97863.97;;;10.30;83.30
64080;BME280;51042;49.696;10.808;2022-12-29T13:46:06;97869.91;;;10.29;83.28
64080;BME280;51042;49.696;10.808;2022-12-29T13:48:52;97871.88;;;10.28;83.34
64080;BME280;51042;49.696;10.808;2022-12-29T13:51:19;97872.50;;;10.32;83.80
64080;BME280;51042;49.696;10.808;2022-12-29T13:54:05;97881.63;;;10.29;84.19
64080;BME280;51042;49.696;10.808;2022-12-29T13:56:45;97879.75;;;10.26;84.93
64080;BME280;51042;49.696;10.808;2022-12-29T13:59:19;97873.97;;;10.24;84.27
64080;BME280;51042;49.696;10.808;2022-12-29T14:04:30;97879.00;;;10.26;84.13
64080;BME280;51042;49.696;10.808;2022-12-29T14:07:35;97885.72;;;10.25;84.61
64080;BME280;51042;49.696;10.808;2022-12-29T14:12:57;97888.47;;;10.12;85.69
64080;BME280;51042;49.696;10.808;2022-12-29T14:17:38;97884.28;;;10.07;86.50
64080;BME280;51042;49.696;10.808;2022-12-29T14:20:05;97890.25;;;10.06;86.68
64080;BME280;51042;49.696;10.808;2022-12-29T14:22:32;97885.63;;;10.03;86.53
64080;BME280;51042;49.696;10.808;2022-12-29T14:24:58;97884.22;;;9.98;87.67
64080;BME280;51042;49.696;10.808;2022-12-29T14:29:54;97896.13;;;9.82;90.97
64080;BME280;51042;49.696;10.808;2022-12-29T14:34:51;97880.22;;;9.77;91.31
64080;BME280;51042;49.696;10.808;2022-12-29T14:37:30;97880.56;;;9.79;90.53
64080;BME280;51042;49.696;10.808;2022-12-29T14:42:37;97882.53;;;9.79;90.77
64080;BME280;51042;49.696;10.808;2022-12-29T14:45:22;97891.63;;;9.76;91.18
64080;BME280;51042;49.696;10.808;2022-12-29T14:47:51;97887.38;;;9.75;90.08
64080;BME280;51042;49.696;10.808;2022-12-29T14:57:43;97894.59;;;9.69;89.70
64080;BME280;51042;49.696;10.808;2022-12-29T15:02:38;97890.47;;;9.64;89.76
64080;BME280;51042;49.696;10.808;2022-12-29T15:05:05;97881.69;;;9.57;90.08
64080;BME280;51042;49.696;10.808;2022-12-29T15:07:31;97892.00;;;9.53;90.54